Regent: Past 24 Hour Conditions

 

Gjoa Haven Airport

09:00 PM MDT 31 July 2014
This table is a summary of hourly weather conditions for the past 24 hours.
Date / Time
(MDT)
Wind(knots) Conditions Visibility(km) Pressure(kPa) Air tempC) Relative humidity(%) Dew pointC)
31 July 2014
21:00 NW 11 gust 19 Cloudy 16 101.3 8 92 7
20:00 NNW 14 Cloudy 16 101.2 9 91 7
19:00 NW 14 gust 19 Partly Cloudy 16 101.2 9 89 8
18:00 NW 13 Cloudy 24 101.2 11 89 9
17:00 NNW 10 Light Rain 10 101.1 11 94 10
16:00 NW 16 Mist 10 101.0 13 87 11
15:00 W 18 gust 23 Haze 24 101.0 17 76 13
14:00 SW 8 Haze 16 101.0 14 80 10
13:00 SSW 15 Haze 16 100.9 14 75 9
12:00 S 19 gust 25 Haze 16 100.9 13 77 9
11:00 S 17 gust 23 Haze 15 100.9 12 78 9
10:00 SSW 13 gust 20 Cloudy 24 101.0 11 80 8
9:00 S 13 Haze 15 101.0 10 85 8
8:00 S 16 gust 22 Cloudy 24 101.1 10 85 8
7:00 S 16 gust 22 Sunny 16 101.1 10 87 8
6:00 S 17 Sunny 16 101.2 10 87 8
5:00 S 19 Sunny 16 101.3 9 88 7
4:00 S 16 gust 21 Sunny 16 101.3 9 89 7
3:00 S 18 Sunny 16 101.3 9 88 8
2:00 S 20 Clear 16 101.4 11 84 8
1:00 S 20 Clear 16 101.4 12 83 9
0:00 SSE 19 gust 24 Clear 16 101.5 12 81 9
30 July 2014
23:00 SSE 16 Clear 16 101.6 11 84 9
22:00 SE 13 Sunny 16 101.7 9 87 7
21:00 SE 12 gust 17 Sunny 16 101.7 8 88 6
 
Map of Arctic - Eastern Arctic marine weather areas Baker Lake Airport Chesterfield Inlet Airport Coral Harbour Airport Gjoa Haven Airport Kugaaruk Airport Rankin Inlet Airport Shepherd Bay Airport Whale Cove Airport Arctic Bay Brevoort Island Qikiqtarjuaq Airport Cape Dorset Airport Cape Dyer Cape Hooper Clyde Airport Grise Fiord Airport Hall Beach Airport Igloolik Airport Iqaluit Airport Longstaff Bluff Pangnirtung Airport Pond Inlet Airport Repulse Bay Airport Resolute Airport Resolution Island Rowley Island Airport Taloyoak Airport Wager Bay Akulivik Airport Ivujivik Airport Puvirnituq Airport Kangiqsujuaq Airport Kangirsuk Airport Quaqtaq Airport Tasiujaq Airport Cape Kakkiviak Cape Kiglapait Nain Airport Saglek Cape Mercy Kimmirut Airport Aupaluk Airport Salluit Airport Kangiqsualujjuaq Airport Fort Ross
Legend: buoyBuoy land stationLand Station